sensor_id;sensor_type;location;lat;lon;timestamp;P1;durP1;ratioP1;P2;durP2;ratioP2
54539;SDS011;40438;52.992;18.604;2023-02-15T00:00:52;21.08;;;13.73;;
54539;SDS011;40438;52.992;18.604;2023-02-15T00:03:18;23.13;;;13.38;;
54539;SDS011;40438;52.992;18.604;2023-02-15T00:05:44;20.30;;;12.68;;
54539;SDS011;40438;52.992;18.604;2023-02-15T00:08:09;22.35;;;13.27;;
54539;SDS011;40438;52.992;18.604;2023-02-15T00:10:35;23.33;;;12.93;;
54539;SDS011;40438;52.992;18.604;2023-02-15T00:13:01;25.45;;;13.90;;
54539;SDS011;40438;52.992;18.604;2023-02-15T00:15:28;19.00;;;12.52;;
54539;SDS011;40438;52.992;18.604;2023-02-15T00:17:55;23.95;;;13.80;;
54539;SDS011;40438;52.992;18.604;2023-02-15T00:20:22;22.75;;;13.60;;
54539;SDS011;40438;52.992;18.604;2023-02-15T00:22:48;23.70;;;13.50;;
54539;SDS011;40438;52.992;18.604;2023-02-15T00:25:13;22.90;;;13.85;;
54539;SDS011;40438;52.992;18.604;2023-02-15T00:27:39;22.85;;;13.10;;
54539;SDS011;40438;52.992;18.604;2023-02-15T00:30:05;25.25;;;14.13;;
54539;SDS011;40438;52.992;18.604;2023-02-15T00:32:33;20.67;;;12.50;;
54539;SDS011;40438;52.992;18.604;2023-02-15T00:35:00;23.70;;;12.75;;
54539;SDS011;40438;52.992;18.604;2023-02-15T00:37:26;29.13;;;13.15;;
54539;SDS011;40438;52.992;18.604;2023-02-15T00:39:52;22.23;;;13.15;;
54539;SDS011;40438;52.992;18.604;2023-02-15T00:42:18;20.50;;;12.45;;
54539;SDS011;40438;52.992;18.604;2023-02-15T00:44:44;23.52;;;13.25;;
54539;SDS011;40438;52.992;18.604;2023-02-15T00:47:10;23.60;;;13.13;;
54539;SDS011;40438;52.992;18.604;2023-02-15T00:49:37;19.58;;;12.60;;
54539;SDS011;40438;52.992;18.604;2023-02-15T00:52:03;22.65;;;12.20;;
54539;SDS011;40438;52.992;18.604;2023-02-15T00:54:28;19.67;;;12.73;;
54539;SDS011;40438;52.992;18.604;2023-02-15T00:56:55;23.42;;;13.20;;
54539;SDS011;40438;52.992;18.604;2023-02-15T00:59:21;21.35;;;12.25;;
54539;SDS011;40438;52.992;18.604;2023-02-15T01:01:46;22.45;;;13.32;;
54539;SDS011;40438;52.992;18.604;2023-02-15T01:04:12;19.20;;;12.27;;
54539;SDS011;40438;52.992;18.604;2023-02-15T01:06:39;20.15;;;12.35;;
54539;SDS011;40438;52.992;18.604;2023-02-15T01:09:05;21.70;;;12.65;;
54539;SDS011;40438;52.992;18.604;2023-02-15T01:11:31;21.67;;;13.55;;
54539;SDS011;40438;52.992;18.604;2023-02-15T01:13:57;21.38;;;13.50;;
54539;SDS011;40438;52.992;18.604;2023-02-15T01:16:23;23.85;;;12.88;;
54539;SDS011;40438;52.992;18.604;2023-02-15T01:18:51;18.20;;;11.48;;
54539;SDS011;40438;52.992;18.604;2023-02-15T01:21:18;19.50;;;11.35;;
54539;SDS011;40438;52.992;18.604;2023-02-15T01:23:46;20.27;;;12.20;;
54539;SDS011;40438;52.992;18.604;2023-02-15T01:26:12;22.50;;;12.48;;
54539;SDS011;40438;52.992;18.604;2023-02-15T01:28:39;19.08;;;11.45;;
54539;SDS011;40438;52.992;18.604;2023-02-15T01:31:05;23.42;;;12.77;;
54539;SDS011;40438;52.992;18.604;2023-02-15T01:33:32;24.88;;;12.90;;
54539;SDS011;40438;52.992;18.604;2023-02-15T01:35:58;23.02;;;11.95;;
54539;SDS011;40438;52.992;18.604;2023-02-15T01:38:24;22.35;;;11.30;;
54539;SDS011;40438;52.992;18.604;2023-02-15T01:40:51;24.20;;;12.38;;
54539;SDS011;40438;52.992;18.604;2023-02-15T01:43:18;21.15;;;12.48;;
54539;SDS011;40438;52.992;18.604;2023-02-15T01:45:43;18.55;;;11.65;;
54539;SDS011;40438;52.992;18.604;2023-02-15T01:48:16;18.95;;;11.45;;
54539;SDS011;40438;52.992;18.604;2023-02-15T01:50:46;22.65;;;11.80;;
54539;SDS011;40438;52.992;18.604;2023-02-15T01:53:15;20.13;;;12.18;;
54539;SDS011;40438;52.992;18.604;2023-02-15T01:55:46;23.20;;;12.55;;
54539;SDS011;40438;52.992;18.604;2023-02-15T01:58:16;20.48;;;11.77;;
54539;SDS011;40438;52.992;18.604;2023-02-15T02:00:42;19.90;;;11.80;;
54539;SDS011;40438;52.992;18.604;2023-02-15T02:03:09;21.75;;;12.38;;
54539;SDS011;40438;52.992;18.604;2023-02-15T02:05:35;24.85;;;13.32;;
54539;SDS011;40438;52.992;18.604;2023-02-15T02:08:02;26.50;;;13.48;;
54539;SDS011;40438;52.992;18.604;2023-02-15T02:10:30;20.52;;;11.80;;
54539;SDS011;40438;52.992;18.604;2023-02-15T02:12:57;21.15;;;11.95;;
54539;SDS011;40438;52.992;18.604;2023-02-15T02:15:27;23.30;;;12.82;;
54539;SDS011;40438;52.992;18.604;2023-02-15T02:18:03;19.42;;;12.20;;
54539;SDS011;40438;52.992;18.604;2023-02-15T02:23:53;18.77;;;11.07;;
54539;SDS011;40438;52.992;18.604;2023-02-15T02:29:33;19.55;;;11.15;;
54539;SDS011;40438;52.992;18.604;2023-02-15T02:35:18;19.65;;;11.13;;
54539;SDS011;40438;52.992;18.604;2023-02-15T02:37:55;20.15;;;11.65;;
54539;SDS011;40438;52.992;18.604;2023-02-15T02:40:30;21.67;;;12.20;;
54539;SDS011;40438;52.992;18.604;2023-02-15T02:43:04;22.25;;;12.70;;
54539;SDS011;40438;52.992;18.604;2023-02-15T02:45:38;22.40;;;11.95;;
54539;SDS011;40438;52.992;18.604;2023-02-15T02:48:09;22.30;;;11.38;;
54539;SDS011;40438;52.992;18.604;2023-02-15T02:50:41;22.27;;;12.48;;
54539;SDS011;40438;52.992;18.604;2023-02-15T02:53:08;18.45;;;11.27;;
54539;SDS011;40438;52.992;18.604;2023-02-15T02:55:35;22.45;;;12.25;;
54539;SDS011;40438;52.992;18.604;2023-02-15T02:58:05;20.13;;;11.23;;
54539;SDS011;40438;52.992;18.604;2023-02-15T03:00:36;19.63;;;11.43;;
54539;SDS011;40438;52.992;18.604;2023-02-15T03:03:06;23.23;;;12.27;;
54539;SDS011;40438;52.992;18.604;2023-02-15T03:05:39;21.08;;;12.45;;
54539;SDS011;40438;52.992;18.604;2023-02-15T03:08:11;22.80;;;11.48;;
54539;SDS011;40438;52.992;18.604;2023-02-15T03:10:39;20.40;;;11.27;;
54539;SDS011;40438;52.992;18.604;2023-02-15T03:13:07;21.95;;;11.98;;
54539;SDS011;40438;52.992;18.604;2023-02-15T03:15:34;19.70;;;10.95;;
54539;SDS011;40438;52.992;18.604;2023-02-15T03:18:03;20.35;;;11.85;;
54539;SDS011;40438;52.992;18.604;2023-02-15T03:20:30;20.77;;;12.10;;
54539;SDS011;40438;52.992;18.604;2023-02-15T03:23:02;18.92;;;10.93;;
54539;SDS011;40438;52.992;18.604;2023-02-15T03:25:32;20.95;;;11.45;;
54539;SDS011;40438;52.992;18.604;2023-02-15T03:28:01;20.38;;;11.95;;
54539;SDS011;40438;52.992;18.604;2023-02-15T03:30:29;20.95;;;11.63;;
54539;SDS011;40438;52.992;18.604;2023-02-15T03:32:58;18.70;;;10.50;;
54539;SDS011;40438;52.992;18.604;2023-02-15T03:35:26;19.30;;;11.40;;
54539;SDS011;40438;52.992;18.604;2023-02-15T03:37:58;19.73;;;11.52;;
54539;SDS011;40438;52.992;18.604;2023-02-15T03:40:29;18.73;;;11.45;;
54539;SDS011;40438;52.992;18.604;2023-02-15T03:42:59;20.00;;;10.73;;
54539;SDS011;40438;52.992;18.604;2023-02-15T03:45:38;19.02;;;11.50;;
54539;SDS011;40438;52.992;18.604;2023-02-15T03:48:07;21.38;;;11.80;;
54539;SDS011;40438;52.992;18.604;2023-02-15T03:50:33;20.92;;;11.05;;
54539;SDS011;40438;52.992;18.604;2023-02-15T03:53:03;20.52;;;11.50;;
54539;SDS011;40438;52.992;18.604;2023-02-15T03:55:34;19.20;;;11.63;;
54539;SDS011;40438;52.992;18.604;2023-02-15T03:58:00;19.70;;;11.73;;
54539;SDS011;40438;52.992;18.604;2023-02-15T04:00:26;18.95;;;10.43;;
54539;SDS011;40438;52.992;18.604;2023-02-15T04:02:56;20.45;;;11.32;;
54539;SDS011;40438;52.992;18.604;2023-02-15T04:05:44;19.05;;;11.10;;
54539;SDS011;40438;52.992;18.604;2023-02-15T04:08:10;19.40;;;11.07;;
54539;SDS011;40438;52.992;18.604;2023-02-15T04:10:38;18.98;;;10.18;;
54539;SDS011;40438;52.992;18.604;2023-02-15T04:13:04;19.50;;;10.82;;
54539;SDS011;40438;52.992;18.604;2023-02-15T04:15:30;20.83;;;10.85;;
54539;SDS011;40438;52.992;18.604;2023-02-15T04:17:56;20.50;;;11.25;;
54539;SDS011;40438;52.992;18.604;2023-02-15T04:20:21;17.20;;;9.68;;
54539;SDS011;40438;52.992;18.604;2023-02-15T04:22:47;18.05;;;11.07;;
54539;SDS011;40438;52.992;18.604;2023-02-15T04:25:13;18.70;;;10.90;;
54539;SDS011;40438;52.992;18.604;2023-02-15T04:27:41;19.02;;;10.40;;
54539;SDS011;40438;52.992;18.604;2023-02-15T04:30:09;20.13;;;10.98;;
54539;SDS011;40438;52.992;18.604;2023-02-15T04:32:36;19.13;;;10.93;;
54539;SDS011;40438;52.992;18.604;2023-02-15T04:35:03;18.40;;;11.20;;
54539;SDS011;40438;52.992;18.604;2023-02-15T04:37:29;20.65;;;11.35;;
54539;SDS011;40438;52.992;18.604;2023-02-15T04:39:55;20.23;;;10.25;;
54539;SDS011;40438;52.992;18.604;2023-02-15T04:42:21;19.08;;;10.52;;
54539;SDS011;40438;52.992;18.604;2023-02-15T04:44:48;17.55;;;10.27;;
54539;SDS011;40438;52.992;18.604;2023-02-15T04:47:14;17.67;;;10.07;;
54539;SDS011;40438;52.992;18.604;2023-02-15T04:49:39;19.17;;;10.40;;
54539;SDS011;40438;52.992;18.604;2023-02-15T04:52:05;20.85;;;11.02;;
54539;SDS011;40438;52.992;18.604;2023-02-15T04:54:31;19.52;;;10.63;;
54539;SDS011;40438;52.992;18.604;2023-02-15T04:56:57;20.15;;;10.90;;
54539;SDS011;40438;52.992;18.604;2023-02-15T04:59:22;20.35;;;10.63;;
54539;SDS011;40438;52.992;18.604;2023-02-15T05:01:50;20.48;;;11.05;;
54539;SDS011;40438;52.992;18.604;2023-02-15T05:04:15;20.65;;;10.93;;
54539;SDS011;40438;52.992;18.604;2023-02-15T05:06:41;22.00;;;12.18;;
54539;SDS011;40438;52.992;18.604;2023-02-15T05:09:07;22.23;;;10.75;;
54539;SDS011;40438;52.992;18.604;2023-02-15T05:11:33;19.38;;;10.60;;
54539;SDS011;40438;52.992;18.604;2023-02-15T05:13:59;22.40;;;11.25;;
54539;SDS011;40438;52.992;18.604;2023-02-15T05:16:24;21.85;;;11.38;;
54539;SDS011;40438;52.992;18.604;2023-02-15T05:18:51;19.50;;;10.73;;
54539;SDS011;40438;52.992;18.604;2023-02-15T05:21:17;20.40;;;12.07;;
54539;SDS011;40438;52.992;18.604;2023-02-15T05:23:43;19.40;;;10.52;;
54539;SDS011;40438;52.992;18.604;2023-02-15T05:26:09;17.25;;;11.05;;
54539;SDS011;40438;52.992;18.604;2023-02-15T05:28:37;20.80;;;11.13;;
54539;SDS011;40438;52.992;18.604;2023-02-15T05:31:04;20.63;;;10.75;;
54539;SDS011;40438;52.992;18.604;2023-02-15T05:33:32;20.15;;;11.85;;
54539;SDS011;40438;52.992;18.604;2023-02-15T05:36:00;17.45;;;10.32;;
54539;SDS011;40438;52.992;18.604;2023-02-15T05:38:26;21.77;;;10.57;;
54539;SDS011;40438;52.992;18.604;2023-02-15T05:40:52;21.08;;;10.98;;
54539;SDS011;40438;52.992;18.604;2023-02-15T05:43:18;19.45;;;11.13;;
54539;SDS011;40438;52.992;18.604;2023-02-15T05:45:44;22.48;;;10.93;;
54539;SDS011;40438;52.992;18.604;2023-02-15T05:48:10;18.33;;;10.60;;
54539;SDS011;40438;52.992;18.604;2023-02-15T05:50:36;20.17;;;10.70;;
54539;SDS011;40438;52.992;18.604;2023-02-15T05:53:03;17.65;;;11.45;;
54539;SDS011;40438;52.992;18.604;2023-02-15T05:55:29;23.50;;;10.95;;
54539;SDS011;40438;52.992;18.604;2023-02-15T05:57:54;18.23;;;10.35;;
54539;SDS011;40438;52.992;18.604;2023-02-15T06:00:20;24.75;;;11.82;;
54539;SDS011;40438;52.992;18.604;2023-02-15T06:02:46;25.48;;;11.15;;
54539;SDS011;40438;52.992;18.604;2023-02-15T06:05:12;29.60;;;11.70;;
54539;SDS011;40438;52.992;18.604;2023-02-15T06:07:38;25.13;;;11.57;;
54539;SDS011;40438;52.992;18.604;2023-02-15T06:10:06;27.42;;;11.68;;
54539;SDS011;40438;52.992;18.604;2023-02-15T06:12:32;29.75;;;12.35;;
54539;SDS011;40438;52.992;18.604;2023-02-15T06:14:58;26.77;;;11.23;;
54539;SDS011;40438;52.992;18.604;2023-02-15T06:17:23;23.80;;;11.98;;
54539;SDS011;40438;52.992;18.604;2023-02-15T06:19:49;24.23;;;11.25;;
54539;SDS011;40438;52.992;18.604;2023-02-15T06:22:15;27.42;;;11.13;;
54539;SDS011;40438;52.992;18.604;2023-02-15T06:24:41;26.80;;;11.63;;
54539;SDS011;40438;52.992;18.604;2023-02-15T06:27:08;24.38;;;12.15;;
54539;SDS011;40438;52.992;18.604;2023-02-15T06:29:34;24.13;;;11.73;;
54539;SDS011;40438;52.992;18.604;2023-02-15T06:32:00;30.30;;;12.73;;
54539;SDS011;40438;52.992;18.604;2023-02-15T06:34:25;27.20;;;12.38;;
54539;SDS011;40438;52.992;18.604;2023-02-15T06:36:51;32.47;;;13.18;;
54539;SDS011;40438;52.992;18.604;2023-02-15T06:39:17;19.92;;;11.20;;
54539;SDS011;40438;52.992;18.604;2023-02-15T06:41:43;22.13;;;11.30;;
54539;SDS011;40438;52.992;18.604;2023-02-15T06:44:10;29.27;;;11.63;;
54539;SDS011;40438;52.992;18.604;2023-02-15T06:46:35;24.48;;;11.70;;
54539;SDS011;40438;52.992;18.604;2023-02-15T06:49:01;25.90;;;12.57;;
54539;SDS011;40438;52.992;18.604;2023-02-15T06:51:27;32.58;;;13.02;;
54539;SDS011;40438;52.992;18.604;2023-02-15T06:53:53;27.70;;;11.85;;
54539;SDS011;40438;52.992;18.604;2023-02-15T06:56:18;26.38;;;12.38;;
54539;SDS011;40438;52.992;18.604;2023-02-15T06:58:44;26.85;;;12.23;;
54539;SDS011;40438;52.992;18.604;2023-02-15T07:01:11;24.83;;;12.13;;
54539;SDS011;40438;52.992;18.604;2023-02-15T07:03:37;26.02;;;11.98;;
54539;SDS011;40438;52.992;18.604;2023-02-15T07:06:03;22.02;;;11.50;;
54539;SDS011;40438;52.992;18.604;2023-02-15T07:08:29;23.23;;;11.52;;
54539;SDS011;40438;52.992;18.604;2023-02-15T07:10:55;25.10;;;12.05;;
54539;SDS011;40438;52.992;18.604;2023-02-15T07:13:21;27.02;;;12.18;;
54539;SDS011;40438;52.992;18.604;2023-02-15T07:15:47;25.00;;;12.50;;
54539;SDS011;40438;52.992;18.604;2023-02-15T07:18:15;25.63;;;11.82;;
54539;SDS011;40438;52.992;18.604;2023-02-15T07:20:40;25.58;;;12.65;;
54539;SDS011;40438;52.992;18.604;2023-02-15T07:23:06;23.08;;;12.23;;
54539;SDS011;40438;52.992;18.604;2023-02-15T07:25:32;28.10;;;12.48;;
54539;SDS011;40438;52.992;18.604;2023-02-15T07:27:58;23.33;;;11.85;;
54539;SDS011;40438;52.992;18.604;2023-02-15T07:30:25;24.60;;;12.32;;
54539;SDS011;40438;52.992;18.604;2023-02-15T07:32:54;30.00;;;11.55;;
54539;SDS011;40438;52.992;18.604;2023-02-15T07:35:21;24.42;;;12.30;;
54539;SDS011;40438;52.992;18.604;2023-02-15T07:37:47;22.52;;;12.27;;
54539;SDS011;40438;52.992;18.604;2023-02-15T07:40:13;25.45;;;12.57;;
54539;SDS011;40438;52.992;18.604;2023-02-15T07:42:39;23.60;;;11.73;;
54539;SDS011;40438;52.992;18.604;2023-02-15T07:45:05;23.98;;;11.52;;
54539;SDS011;40438;52.992;18.604;2023-02-15T07:47:31;22.27;;;11.98;;
54539;SDS011;40438;52.992;18.604;2023-02-15T07:49:57;28.77;;;13.57;;
54539;SDS011;40438;52.992;18.604;2023-02-15T07:52:26;27.15;;;11.48;;
54539;SDS011;40438;52.992;18.604;2023-02-15T07:54:52;23.17;;;11.82;;
54539;SDS011;40438;52.992;18.604;2023-02-15T07:57:17;24.65;;;12.77;;
54539;SDS011;40438;52.992;18.604;2023-02-15T07:59:43;24.88;;;11.63;;
54539;SDS011;40438;52.992;18.604;2023-02-15T08:02:09;27.63;;;13.05;;
54539;SDS011;40438;52.992;18.604;2023-02-15T08:04:35;24.35;;;12.15;;
54539;SDS011;40438;52.992;18.604;2023-02-15T08:07:01;20.85;;;11.88;;
54539;SDS011;40438;52.992;18.604;2023-02-15T08:09:28;23.77;;;11.88;;
54539;SDS011;40438;52.992;18.604;2023-02-15T08:11:54;20.95;;;11.30;;
54539;SDS011;40438;52.992;18.604;2023-02-15T08:14:20;25.73;;;12.02;;
54539;SDS011;40438;52.992;18.604;2023-02-15T08:16:47;22.30;;;11.07;;
54539;SDS011;40438;52.992;18.604;2023-02-15T08:19:14;23.27;;;10.85;;
54539;SDS011;40438;52.992;18.604;2023-02-15T08:21:42;21.85;;;11.27;;
54539;SDS011;40438;52.992;18.604;2023-02-15T08:24:10;23.50;;;11.98;;
54539;SDS011;40438;52.992;18.604;2023-02-15T08:26:39;21.13;;;11.70;;
54539;SDS011;40438;52.992;18.604;2023-02-15T08:29:05;23.35;;;12.15;;
54539;SDS011;40438;52.992;18.604;2023-02-15T08:31:32;22.13;;;11.50;;
54539;SDS011;40438;52.992;18.604;2023-02-15T08:33:58;26.42;;;12.02;;
54539;SDS011;40438;52.992;18.604;2023-02-15T08:36:25;26.67;;;12.02;;
54539;SDS011;40438;52.992;18.604;2023-02-15T08:38:52;22.58;;;11.57;;
54539;SDS011;40438;52.992;18.604;2023-02-15T08:41:19;24.92;;;11.32;;
54539;SDS011;40438;52.992;18.604;2023-02-15T08:43:51;21.67;;;11.75;;
54539;SDS011;40438;52.992;18.604;2023-02-15T08:46:18;20.80;;;9.95;;
54539;SDS011;40438;52.992;18.604;2023-02-15T08:48:45;19.63;;;10.23;;
54539;SDS011;40438;52.992;18.604;2023-02-15T08:51:12;20.10;;;10.68;;
54539;SDS011;40438;52.992;18.604;2023-02-15T08:53:39;19.58;;;10.20;;
54539;SDS011;40438;52.992;18.604;2023-02-15T08:56:06;16.65;;;9.85;;
54539;SDS011;40438;52.992;18.604;2023-02-15T08:58:33;19.73;;;10.50;;
54539;SDS011;40438;52.992;18.604;2023-02-15T09:01:00;19.70;;;10.73;;
54539;SDS011;40438;52.992;18.604;2023-02-15T09:03:26;20.63;;;10.45;;
54539;SDS011;40438;52.992;18.604;2023-02-15T09:05:56;22.00;;;10.48;;
54539;SDS011;40438;52.992;18.604;2023-02-15T09:08:22;20.25;;;9.75;;
54539;SDS011;40438;52.992;18.604;2023-02-15T09:10:48;19.60;;;9.75;;
54539;SDS011;40438;52.992;18.604;2023-02-15T09:13:14;21.92;;;10.30;;
54539;SDS011;40438;52.992;18.604;2023-02-15T09:15:40;22.42;;;9.38;;
54539;SDS011;40438;52.992;18.604;2023-02-15T09:18:07;16.10;;;9.23;;
54539;SDS011;40438;52.992;18.604;2023-02-15T09:20:34;17.05;;;9.75;;
54539;SDS011;40438;52.992;18.604;2023-02-15T09:23:01;18.83;;;9.68;;
54539;SDS011;40438;52.992;18.604;2023-02-15T09:25:26;18.00;;;9.05;;
54539;SDS011;40438;52.992;18.604;2023-02-15T09:27:52;22.55;;;8.88;;
54539;SDS011;40438;52.992;18.604;2023-02-15T09:30:18;15.85;;;9.32;;
54539;SDS011;40438;52.992;18.604;2023-02-15T09:32:44;15.10;;;8.93;;
54539;SDS011;40438;52.992;18.604;2023-02-15T09:35:11;15.43;;;8.68;;
54539;SDS011;40438;52.992;18.604;2023-02-15T09:37:37;18.27;;;8.73;;
54539;SDS011;40438;52.992;18.604;2023-02-15T09:40:03;16.50;;;9.23;;
54539;SDS011;40438;52.992;18.604;2023-02-15T09:42:40;13.80;;;8.20;;
54539;SDS011;40438;52.992;18.604;2023-02-15T09:45:20;17.60;;;8.65;;
54539;SDS011;40438;52.992;18.604;2023-02-15T09:48:01;20.70;;;8.93;;
54539;SDS011;40438;52.992;18.604;2023-02-15T09:50:39;15.90;;;8.18;;
54539;SDS011;40438;52.992;18.604;2023-02-15T09:53:21;17.20;;;8.50;;
54539;SDS011;40438;52.992;18.604;2023-02-15T09:56:02;17.15;;;8.65;;
54539;SDS011;40438;52.992;18.604;2023-02-15T09:58:37;15.35;;;8.77;;
54539;SDS011;40438;52.992;18.604;2023-02-15T10:01:13;17.67;;;10.05;;
54539;SDS011;40438;52.992;18.604;2023-02-15T10:03:50;17.83;;;9.48;;
54539;SDS011;40438;52.992;18.604;2023-02-15T10:06:34;16.20;;;9.13;;
54539;SDS011;40438;52.992;18.604;2023-02-15T10:09:10;18.30;;;10.18;;
54539;SDS011;40438;52.992;18.604;2023-02-15T10:11:52;19.95;;;9.38;;
54539;SDS011;40438;52.992;18.604;2023-02-15T10:14:41;17.48;;;9.32;;
54539;SDS011;40438;52.992;18.604;2023-02-15T10:17:32;20.23;;;10.50;;
54539;SDS011;40438;52.992;18.604;2023-02-15T10:20:12;25.73;;;11.73;;
54539;SDS011;40438;52.992;18.604;2023-02-15T10:22:51;25.60;;;13.35;;
54539;SDS011;40438;52.992;18.604;2023-02-15T10:25:32;23.98;;;13.00;;
54539;SDS011;40438;52.992;18.604;2023-02-15T10:28:07;24.52;;;12.20;;
54539;SDS011;40438;52.992;18.604;2023-02-15T10:30:42;22.00;;;11.93;;
54539;SDS011;40438;52.992;18.604;2023-02-15T10:33:14;21.70;;;11.35;;
54539;SDS011;40438;52.992;18.604;2023-02-15T10:35:47;20.13;;;10.98;;
54539;SDS011;40438;52.992;18.604;2023-02-15T10:38:26;20.10;;;10.95;;
54539;SDS011;40438;52.992;18.604;2023-02-15T10:41:02;19.70;;;10.85;;
54539;SDS011;40438;52.992;18.604;2023-02-15T10:43:40;22.92;;;11.68;;
54539;SDS011;40438;52.992;18.604;2023-02-15T10:46:16;21.23;;;10.70;;
54539;SDS011;40438;52.992;18.604;2023-02-15T10:49:09;20.88;;;11.88;;
54539;SDS011;40438;52.992;18.604;2023-02-15T10:51:54;24.58;;;12.55;;
54539;SDS011;40438;52.992;18.604;2023-02-15T10:54:33;23.48;;;12.20;;
54539;SDS011;40438;52.992;18.604;2023-02-15T10:57:09;22.17;;;12.15;;
54539;SDS011;40438;52.992;18.604;2023-02-15T10:59:48;22.02;;;11.57;;
54539;SDS011;40438;52.992;18.604;2023-02-15T11:02:23;22.70;;;12.02;;
54539;SDS011;40438;52.992;18.604;2023-02-15T11:04:59;20.23;;;11.75;;
54539;SDS011;40438;52.992;18.604;2023-02-15T11:07:35;22.65;;;12.57;;
54539;SDS011;40438;52.992;18.604;2023-02-15T11:10:11;23.63;;;13.00;;
54539;SDS011;40438;52.992;18.604;2023-02-15T11:12:51;22.77;;;13.13;;
54539;SDS011;40438;52.992;18.604;2023-02-15T11:15:19;21.35;;;12.77;;
54539;SDS011;40438;52.992;18.604;2023-02-15T11:20:21;25.25;;;13.50;;
54539;SDS011;40438;52.992;18.604;2023-02-15T11:22:50;20.70;;;11.35;;
54539;SDS011;40438;52.992;18.604;2023-02-15T11:25:19;22.25;;;12.38;;
54539;SDS011;40438;52.992;18.604;2023-02-15T11:27:50;23.55;;;12.55;;
54539;SDS011;40438;52.992;18.604;2023-02-15T11:30:19;22.58;;;12.70;;
54539;SDS011;40438;52.992;18.604;2023-02-15T11:32:47;19.55;;;11.35;;
54539;SDS011;40438;52.992;18.604;2023-02-15T11:35:17;26.02;;;13.70;;
54539;SDS011;40438;52.992;18.604;2023-02-15T11:37:48;22.27;;;13.35;;
54539;SDS011;40438;52.992;18.604;2023-02-15T11:40:20;23.58;;;13.63;;
54539;SDS011;40438;52.992;18.604;2023-02-15T11:42:48;24.38;;;14.38;;
54539;SDS011;40438;52.992;18.604;2023-02-15T11:45:19;49.22;;;26.08;;
54539;SDS011;40438;52.992;18.604;2023-02-15T11:47:51;37.50;;;19.27;;
54539;SDS011;40438;52.992;18.604;2023-02-15T11:50:19;31.02;;;17.48;;
54539;SDS011;40438;52.992;18.604;2023-02-15T11:52:47;33.65;;;18.20;;
54539;SDS011;40438;52.992;18.604;2023-02-15T11:55:14;27.42;;;15.70;;
54539;SDS011;40438;52.992;18.604;2023-02-15T11:57:46;26.85;;;15.52;;
54539;SDS011;40438;52.992;18.604;2023-02-15T12:00:20;26.88;;;15.93;;
54539;SDS011;40438;52.992;18.604;2023-02-15T12:02:55;24.30;;;14.50;;
54539;SDS011;40438;52.992;18.604;2023-02-15T12:05:23;27.52;;;13.52;;
54539;SDS011;40438;52.992;18.604;2023-02-15T12:07:52;24.17;;;13.63;;
54539;SDS011;40438;52.992;18.604;2023-02-15T12:10:22;25.75;;;14.25;;
54539;SDS011;40438;52.992;18.604;2023-02-15T12:12:55;25.52;;;14.65;;
54539;SDS011;40438;52.992;18.604;2023-02-15T12:15:34;25.63;;;15.27;;
54539;SDS011;40438;52.992;18.604;2023-02-15T12:18:01;29.27;;;15.85;;
54539;SDS011;40438;52.992;18.604;2023-02-15T12:20:28;25.00;;;14.90;;
54539;SDS011;40438;52.992;18.604;2023-02-15T12:22:59;28.90;;;14.98;;
54539;SDS011;40438;52.992;18.604;2023-02-15T12:25:26;24.52;;;13.70;;
54539;SDS011;40438;52.992;18.604;2023-02-15T12:27:59;23.55;;;14.68;;
54539;SDS011;40438;52.992;18.604;2023-02-15T12:30:27;26.02;;;14.43;;
54539;SDS011;40438;52.992;18.604;2023-02-15T12:32:57;22.38;;;14.18;;
54539;SDS011;40438;52.992;18.604;2023-02-15T12:35:26;25.75;;;14.35;;
54539;SDS011;40438;52.992;18.604;2023-02-15T12:37:55;25.48;;;14.38;;
54539;SDS011;40438;52.992;18.604;2023-02-15T12:40:23;30.92;;;16.83;;
54539;SDS011;40438;52.992;18.604;2023-02-15T12:42:49;25.65;;;15.20;;
54539;SDS011;40438;52.992;18.604;2023-02-15T12:45:24;25.08;;;14.73;;
54539;SDS011;40438;52.992;18.604;2023-02-15T12:48:14;24.95;;;14.73;;
54539;SDS011;40438;52.992;18.604;2023-02-15T12:50:41;26.55;;;14.57;;
54539;SDS011;40438;52.992;18.604;2023-02-15T12:53:10;26.70;;;14.75;;
54539;SDS011;40438;52.992;18.604;2023-02-15T12:55:42;24.08;;;13.98;;
54539;SDS011;40438;52.992;18.604;2023-02-15T12:58:16;24.73;;;14.90;;
54539;SDS011;40438;52.992;18.604;2023-02-15T13:00:45;24.17;;;14.13;;
54539;SDS011;40438;52.992;18.604;2023-02-15T13:03:15;22.30;;;14.40;;
54539;SDS011;40438;52.992;18.604;2023-02-15T13:05:43;23.97;;;14.53;;
54539;SDS011;40438;52.992;18.604;2023-02-15T13:08:11;23.52;;;13.90;;
54539;SDS011;40438;52.992;18.604;2023-02-15T13:10:41;23.95;;;14.02;;
54539;SDS011;40438;52.992;18.604;2023-02-15T13:13:18;23.92;;;13.68;;
54539;SDS011;40438;52.992;18.604;2023-02-15T13:15:50;25.17;;;14.63;;
54539;SDS011;40438;52.992;18.604;2023-02-15T13:18:18;24.33;;;14.18;;
54539;SDS011;40438;52.992;18.604;2023-02-15T13:20:53;25.17;;;14.63;;
54539;SDS011;40438;52.992;18.604;2023-02-15T13:23:25;25.52;;;14.48;;
54539;SDS011;40438;52.992;18.604;2023-02-15T13:25:52;23.08;;;14.48;;
54539;SDS011;40438;52.992;18.604;2023-02-15T13:28:22;25.67;;;14.32;;
54539;SDS011;40438;52.992;18.604;2023-02-15T13:30:53;24.70;;;14.38;;
54539;SDS011;40438;52.992;18.604;2023-02-15T13:33:21;25.38;;;13.93;;
54539;SDS011;40438;52.992;18.604;2023-02-15T13:36:01;26.15;;;15.93;;
54539;SDS011;40438;52.992;18.604;2023-02-15T13:38:43;30.88;;;16.73;;
54539;SDS011;40438;52.992;18.604;2023-02-15T13:43:44;28.90;;;16.58;;
54539;SDS011;40438;52.992;18.604;2023-02-15T13:46:21;29.15;;;15.95;;
54539;SDS011;40438;52.992;18.604;2023-02-15T13:49:02;25.25;;;15.77;;
54539;SDS011;40438;52.992;18.604;2023-02-15T13:51:38;27.60;;;15.88;;
54539;SDS011;40438;52.992;18.604;2023-02-15T13:54:17;22.83;;;14.52;;
54539;SDS011;40438;52.992;18.604;2023-02-15T13:57:15;25.00;;;14.88;;
54539;SDS011;40438;52.992;18.604;2023-02-15T14:00:05;25.33;;;14.48;;
54539;SDS011;40438;52.992;18.604;2023-02-15T14:06:00;28.05;;;16.00;;
54539;SDS011;40438;52.992;18.604;2023-02-15T14:08:41;27.15;;;15.68;;
54539;SDS011;40438;52.992;18.604;2023-02-15T14:11:17;25.83;;;15.80;;
54539;SDS011;40438;52.992;18.604;2023-02-15T14:16:51;29.35;;;15.40;;
54539;SDS011;40438;52.992;18.604;2023-02-15T14:19:28;29.38;;;15.90;;
54539;SDS011;40438;52.992;18.604;2023-02-15T14:22:05;23.75;;;15.55;;
54539;SDS011;40438;52.992;18.604;2023-02-15T14:24:42;29.52;;;15.85;;
54539;SDS011;40438;52.992;18.604;2023-02-15T14:27:17;30.75;;;15.27;;
54539;SDS011;40438;52.992;18.604;2023-02-15T14:29:51;25.98;;;15.68;;
54539;SDS011;40438;52.992;18.604;2023-02-15T14:32:24;28.38;;;16.95;;
54539;SDS011;40438;52.992;18.604;2023-02-15T14:34:56;39.40;;;19.48;;
54539;SDS011;40438;52.992;18.604;2023-02-15T14:37:26;38.00;;;20.92;;
54539;SDS011;40438;52.992;18.604;2023-02-15T14:40:01;34.58;;;19.17;;
54539;SDS011;40438;52.992;18.604;2023-02-15T14:42:36;33.10;;;19.27;;
54539;SDS011;40438;52.992;18.604;2023-02-15T14:45:13;49.75;;;20.05;;